Time;durP1;ratioP1;P1;durP2;ratioP2;P2;SDS_P1;SDS_P2;PMS_P1;PMS_P2;Temp;Humidity;BMP_temperature;BMP_pressure;BME280_temperature;BME280_humidity;BME280_pressure;Samples;Min_cycle;Max_cycle;Signal;HPM_P1;HPM_P2
2023/03/10 00:00:25;;;;;;;3.90;3.70;;;2.80;97.30;;;;;;5007293;28;20426;-87
2023/03/10 00:02:51;;;;;;;4.07;3.83;;;2.80;97.30;;;;;;5001830;28;20184;-87
2023/03/10 00:05:19;;;;;;;5.40;2.97;;;2.80;97.30;;;;;;5008840;28;20575;-86
2023/03/10 00:07:45;;;;;;;4.20;2.60;;;2.80;97.30;;;;;;5005585;28;20172;-85
2023/03/10 00:10:13;;;;;;;3.17;2.57;;;2.80;97.30;;;;;;5007558;28;20409;-88
2023/03/10 00:12:38;;;;;;;6.80;4.00;;;2.80;97.30;;;;;;4999319;28;20798;-87
2023/03/10 00:15:05;;;;;;;6.60;3.50;;;2.80;97.30;;;;;;5008916;28;20420;-87
2023/03/10 00:17:31;;;;;;;3.20;3.00;;;2.80;97.30;;;;;;5020573;28;20192;-87
2023/03/10 00:19:56;;;;;;;3.50;3.30;;;2.80;97.30;;;;;;5008992;28;20816;-87
2023/03/10 00:22:22;;;;;;;10.23;4.23;;;2.80;97.30;;;;;;5028099;28;20291;-87
2023/03/10 00:24:47;;;;;;;9.47;4.03;;;2.80;97.30;;;;;;5005632;28;20212;-87
2023/03/10 00:27:13;;;;;;;1.63;1.53;;;2.90;97.30;;;;;;4998058;28;20169;-86
2023/03/10 00:29:38;;;;;;;2.47;2.27;;;2.90;97.30;;;;;;5015517;28;20268;-86
2023/03/10 00:32:04;;;;;;;7.43;4.50;;;2.90;97.30;;;;;;4999526;28;20177;-87
2023/03/10 00:34:30;;;;;;;6.57;4.97;;;2.90;97.30;;;;;;5000455;28;20740;-87
2023/03/10 00:36:55;;;;;;;4.40;2.40;;;3.00;97.30;;;;;;5004814;28;20271;-87
2023/03/10 00:39:21;;;;;;;6.23;2.60;;;3.00;97.30;;;;;;5008892;28;20551;-87
2023/03/10 00:41:47;;;;;;;1.70;1.30;;;3.00;97.30;;;;;;5004590;28;20643;-87
2023/03/10 00:44:13;;;;;;;6.57;3.13;;;3.00;97.30;;;;;;5027436;28;20753;-87
2023/03/10 00:46:39;;;;;;;4.40;2.40;;;3.00;97.30;;;;;;5023477;28;20570;-87
2023/03/10 00:49:06;;;;;;;1.50;1.40;;;3.00;97.30;;;;;;5031762;28;20614;-87
2023/03/10 00:51:32;;;;;;;3.90;3.43;;;3.00;97.30;;;;;;5019801;28;20192;-87
2023/03/10 00:53:59;;;;;;;3.27;3.07;;;3.00;97.30;;;;;;5019370;28;20548;-88
2023/03/10 00:56:26;;;;;;;8.47;3.13;;;3.00;97.30;;;;;;5007209;28;20427;-87
2023/03/10 00:58:54;;;;;;;2.70;2.50;;;3.00;97.30;;;;;;5001831;28;20800;-87
2023/03/10 01:01:24;;;;;;;3.80;3.00;;;3.00;97.30;;;;;;5022184;28;20434;-87
2023/03/10 01:03:52;;;;;;;5.53;4.63;;;3.00;97.30;;;;;;5005245;28;20435;-86
2023/03/10 01:06:17;;;;;;;2.57;2.37;;;3.00;97.30;;;;;;4997655;28;20597;-88
2023/03/10 01:08:43;;;;;;;1.17;1.07;;;3.00;97.30;;;;;;5004403;28;20891;-87
2023/03/10 01:11:10;;;;;;;3.13;2.97;;;3.00;97.30;;;;;;4999782;28;20570;-86
2023/03/10 01:13:35;;;;;;;6.50;2.93;;;3.00;97.30;;;;;;5000704;28;20196;-86
2023/03/10 01:16:01;;;;;;;6.90;1.60;;;3.10;97.30;;;;;;5013815;28;20419;-87
2023/03/10 01:18:26;;;;;;;1.10;1.00;;;3.20;97.30;;;;;;5032377;28;20184;-86
2023/03/10 01:20:52;;;;;;;2.20;2.00;;;3.50;97.30;;;;;;5002443;28;20192;-87
2023/03/10 01:23:22;;;;;;;1.63;1.53;;;3.80;97.30;;;;;;5008264;28;20210;-87
2023/03/10 01:25:49;;;;;;;2.37;2.17;;;4.30;97.30;;;;;;5006803;28;20415;-86
2023/03/10 01:28:15;;;;;;;1.40;1.30;;;4.60;97.30;;;;;;5004789;28;20938;-86
2023/03/10 01:30:41;;;;;;;14.63;1.57;;;5.10;97.30;;;;;;5001012;28;20443;-86
2023/03/10 01:33:08;;;;;;;1.30;1.20;;;5.30;97.30;;;;;;5032657;28;20932;-86
2023/03/10 01:35:33;;;;;;;1.03;0.93;;;5.60;97.30;;;;;;5014041;28;20232;-85
2023/03/10 01:37:59;;;;;;;1.23;1.13;;;5.90;97.30;;;;;;5002649;28;21005;-86
2023/03/10 01:40:25;;;;;;;1.00;0.90;;;6.10;97.30;;;;;;5009897;28;20703;-86
2023/03/10 01:43:11;;;;;;;1.43;1.33;;;6.40;97.30;;;;;;5014497;28;20188;-86
2023/03/10 01:45:37;;;;;;;1.50;1.40;;;6.60;97.30;;;;;;5002423;28;21001;-86
2023/03/10 01:48:02;;;;;;;1.10;1.00;;;6.70;97.30;;;;;;5014556;28;20454;-86
2023/03/10 01:50:28;;;;;;;1.20;1.10;;;6.90;97.30;;;;;;5011419;28;20281;-86
2023/03/10 01:52:57;;;;;;;1.87;1.77;;;7.00;97.30;;;;;;5031167;28;20212;-86
2023/03/10 01:55:46;;;;;;;1.10;1.00;;;7.10;97.30;;;;;;5008606;28;20173;-86
2023/03/10 01:58:15;;;;;;;7.20;1.27;;;7.20;97.30;;;;;;5015726;28;20423;-86
2023/03/10 02:00:42;;;;;;;17.37;2.53;;;7.30;97.30;;;;;;5005532;28;20510;-85
2023/03/10 02:03:13;;;;;;;1.00;0.90;;;7.40;97.30;;;;;;4995561;28;21077;-86
2023/03/10 02:05:45;;;;;;;1.27;1.10;;;7.60;97.30;;;;;;5026202;28;20459;-86
2023/03/10 02:08:11;;;;;;;1.00;0.90;;;7.70;97.30;;;;;;5005939;28;20946;-87
2023/03/10 02:10:38;;;;;;;0.90;0.80;;;7.70;97.30;;;;;;5007686;28;20415;-86
2023/03/10 02:13:04;;;;;;;1.30;1.20;;;7.80;97.30;;;;;;5008111;28;20443;-86
2023/03/10 02:15:31;;;;;;;1.80;1.00;;;7.80;97.30;;;;;;5014283;28;20407;-86
2023/03/10 02:17:57;;;;;;;0.87;0.77;;;7.80;97.30;;;;;;5010198;28;20419;-86
2023/03/10 02:20:40;;;;;;;1.00;0.90;;;7.80;97.30;;;;;;5009482;28;20481;-86
2023/03/10 02:23:06;;;;;;;11.83;3.70;;;7.90;97.30;;;;;;5011686;28;20439;-86
2023/03/10 02:25:41;;;;;;;1.50;1.40;;;7.90;97.30;;;;;;4997129;28;21014;-85
2023/03/10 02:28:07;;;;;;;2.77;1.10;;;8.00;97.30;;;;;;5010902;28;20423;-85
2023/03/10 02:30:37;;;;;;;1.13;1.03;;;8.00;97.30;;;;;;5004212;28;20623;-85
2023/03/10 02:33:09;;;;;;;1.10;1.07;;;8.00;97.30;;;;;;5029215;28;20367;-86
2023/03/10 02:35:34;;;;;;;1.83;1.03;;;8.00;97.30;;;;;;5028810;28;20578;-86
2023/03/10 02:38:00;;;;;;;1.20;1.10;;;8.00;97.30;;;;;;5000858;28;20498;-85
2023/03/10 02:40:36;;;;;;;2.27;2.07;;;8.00;97.30;;;;;;5029428;28;20186;-86
2023/03/10 02:43:14;;;;;;;1.80;1.70;;;8.10;97.30;;;;;;4998185;28;20215;-86
2023/03/10 02:45:43;;;;;;;1.20;1.10;;;8.10;97.30;;;;;;5008514;28;20458;-86
2023/03/10 02:48:17;;;;;;;0.90;0.80;;;8.10;97.30;;;;;;5008497;28;20416;-86
2023/03/10 02:50:46;;;;;;;1.00;0.90;;;8.10;97.30;;;;;;5002538;28;20484;-86
2023/03/10 02:53:18;;;;;;;1.00;0.90;;;8.00;97.30;;;;;;5013003;28;20444;-86
2023/03/10 02:55:43;;;;;;;1.37;1.27;;;8.00;97.30;;;;;;5029249;28;20468;-86
2023/03/10 02:58:09;;;;;;;2.83;1.33;;;8.00;97.30;;;;;;5028879;28;20416;-85
2023/03/10 03:00:40;;;;;;;1.73;1.63;;;8.10;97.30;;;;;;5017298;28;20185;-85
2023/03/10 03:03:06;;;;;;;3.90;1.47;;;8.10;97.30;;;;;;5005619;28;20757;-85
2023/03/10 03:05:32;;;;;;;1.00;0.90;;;8.00;97.30;;;;;;5012998;28;20459;-85
2023/03/10 03:07:58;;;;;;;1.10;1.00;;;8.00;97.30;;;;;;5026352;28;20499;-85
2023/03/10 03:10:24;;;;;;;1.37;1.27;;;8.00;97.30;;;;;;5012714;28;20173;-85
2023/03/10 03:12:50;;;;;;;1.53;1.43;;;8.10;97.30;;;;;;5027447;28;20459;-84
2023/03/10 03:15:16;;;;;;;1.00;0.90;;;8.10;97.30;;;;;;5001018;28;20185;-85
2023/03/10 03:17:41;;;;;;;0.90;0.80;;;8.20;97.30;;;;;;5023367;28;20447;-85
2023/03/10 03:20:13;;;;;;;1.20;1.10;;;8.20;97.30;;;;;;5008293;28;20492;-86
2023/03/10 03:22:42;;;;;;;14.60;2.43;;;8.20;97.30;;;;;;5010910;28;20187;-86
2023/03/10 03:25:09;;;;;;;1.33;1.23;;;8.20;97.30;;;;;;5004627;28;20485;-85
2023/03/10 03:27:36;;;;;;;5.90;1.67;;;8.20;97.30;;;;;;5018103;28;20416;-85
2023/03/10 03:30:08;;;;;;;1.20;1.10;;;8.20;97.30;;;;;;5011285;28;20942;-85
2023/03/10 03:32:35;;;;;;;1.10;1.00;;;8.20;97.30;;;;;;4998020;28;20452;-85
2023/03/10 03:35:01;;;;;;;1.00;0.90;;;8.30;97.30;;;;;;5024789;28;20463;-85
2023/03/10 03:37:27;;;;;;;3.03;1.67;;;8.30;97.30;;;;;;5016652;28;20427;-85
2023/03/10 03:39:52;;;;;;;2.33;1.80;;;8.30;97.30;;;;;;5028553;28;20419;-85
2023/03/10 03:42:18;;;;;;;1.07;1.03;;;8.40;97.30;;;;;;5008172;28;20858;-85
2023/03/10 03:44:43;;;;;;;1.00;0.90;;;8.40;97.30;;;;;;5027722;28;20240;-85
2023/03/10 03:47:09;;;;;;;3.20;1.23;;;8.40;97.30;;;;;;5002235;28;20198;-85
2023/03/10 03:49:36;;;;;;;1.03;0.93;;;8.50;97.30;;;;;;5023491;28;20172;-85
2023/03/10 03:52:01;;;;;;;1.30;1.20;;;8.40;97.30;;;;;;5009686;28;20196;-85
2023/03/10 03:54:27;;;;;;;5.23;2.33;;;8.40;97.30;;;;;;5020230;28;20471;-84
2023/03/10 03:56:52;;;;;;;1.40;1.30;;;8.50;97.30;;;;;;5020748;28;20176;-85
2023/03/10 03:59:18;;;;;;;1.10;1.10;;;8.50;97.30;;;;;;4998547;28;20542;-85
2023/03/10 04:01:43;;;;;;;1.10;1.00;;;8.60;97.30;;;;;;5003913;28;20184;-85
2023/03/10 04:04:09;;;;;;;1.30;1.20;;;8.60;97.30;;;;;;5019492;28;20546;-85
2023/03/10 04:06:34;;;;;;;5.30;1.67;;;8.60;97.30;;;;;;5026347;28;20207;-84
2023/03/10 04:09:00;;;;;;;1.07;0.87;;;8.60;97.30;;;;;;5004194;28;20440;-85
2023/03/10 04:11:25;;;;;;;2.13;0.93;;;8.60;97.30;;;;;;5010548;28;20305;-85
2023/03/10 04:13:51;;;;;;;1.00;0.90;;;8.60;97.30;;;;;;5003231;28;20683;-85
2023/03/10 04:16:16;;;;;;;1.50;1.37;;;8.60;97.30;;;;;;5000277;28;20237;-85
2023/03/10 04:18:42;;;;;;;1.10;1.00;;;8.60;97.30;;;;;;5005792;28;20173;-85
2023/03/10 04:21:07;;;;;;;1.30;1.20;;;8.70;97.30;;;;;;5009121;28;20681;-86
2023/03/10 04:23:33;;;;;;;1.10;1.00;;;8.70;97.30;;;;;;5002476;28;20196;-86
2023/03/10 04:25:58;;;;;;;1.00;0.90;;;8.70;97.30;;;;;;5002362;28;20209;-86
2023/03/10 04:28:24;;;;;;;1.27;1.17;;;8.70;97.30;;;;;;5001099;28;20188;-86
2023/03/10 04:30:50;;;;;;;1.10;1.00;;;8.80;97.30;;;;;;5007818;28;20557;-86
2023/03/10 04:33:15;;;;;;;1.00;0.90;;;8.80;97.30;;;;;;5008440;28;20188;-85
2023/03/10 04:35:42;;;;;;;1.50;1.40;;;8.80;97.30;;;;;;5003184;28;20258;-86
2023/03/10 04:38:08;;;;;;;1.97;1.90;;;8.90;97.30;;;;;;5028116;28;20180;-86
2023/03/10 04:40:33;;;;;;;1.10;1.00;;;8.90;97.30;;;;;;5005181;28;21009;-86
2023/03/10 04:42:59;;;;;;;1.33;1.23;;;8.80;97.30;;;;;;5010651;28;20276;-86
2023/03/10 04:45:25;;;;;;;1.00;0.90;;;8.80;97.30;;;;;;5008540;28;20702;-86
2023/03/10 04:47:51;;;;;;;0.97;0.87;;;8.80;97.30;;;;;;5002733;28;20189;-86
2023/03/10 04:50:16;;;;;;;0.90;0.80;;;8.80;97.30;;;;;;4997992;28;20430;-85
2023/03/10 04:52:44;;;;;;;1.20;1.10;;;8.90;97.30;;;;;;5021909;28;20196;-86
2023/03/10 04:55:10;;;;;;;1.40;1.30;;;8.90;97.30;;;;;;5017386;28;20304;-86
2023/03/10 04:57:35;;;;;;;1.50;1.40;;;8.90;97.30;;;;;;4999474;28;20935;-86
2023/03/10 05:00:01;;;;;;;2.80;1.27;;;8.90;97.30;;;;;;5008723;28;20557;-86
2023/03/10 05:02:26;;;;;;;1.23;1.20;;;8.90;97.30;;;;;;5012142;28;20185;-86
2023/03/10 05:04:52;;;;;;;1.87;1.07;;;8.90;97.30;;;;;;5010734;28;20212;-86
2023/03/10 05:07:17;;;;;;;1.00;0.90;;;8.90;97.30;;;;;;5005064;28;20169;-86
2023/03/10 05:09:43;;;;;;;2.50;1.50;;;8.90;97.30;;;;;;5010979;28;20181;-85
2023/03/10 05:12:10;;;;;;;1.00;0.90;;;8.90;97.30;;;;;;5009558;28;20199;-85
2023/03/10 05:14:36;;;;;;;0.90;0.80;;;8.90;97.30;;;;;;5003785;28;20212;-85
2023/03/10 05:17:02;;;;;;;1.20;1.10;;;8.90;97.30;;;;;;5010016;28;20476;-86
2023/03/10 05:19:28;;;;;;;1.47;1.37;;;8.80;97.30;;;;;;5004608;28;20434;-86
2023/03/10 05:21:53;;;;;;;1.23;1.00;;;8.90;97.30;;;;;;5006658;28;20424;-86
2023/03/10 05:24:19;;;;;;;1.00;0.90;;;8.90;97.30;;;;;;5008693;28;20564;-85
2023/03/10 05:26:44;;;;;;;1.23;1.13;;;8.80;97.30;;;;;;5005429;28;20212;-84
2023/03/10 05:29:10;;;;;;;13.40;1.93;;;8.80;97.30;;;;;;5004005;28;20183;-83
2023/03/10 05:31:36;;;;;;;1.73;1.20;;;8.90;97.30;;;;;;5015524;28;20269;-84
2023/03/10 05:34:01;;;;;;;1.47;1.37;;;8.90;97.30;;;;;;5013098;28;20701;-84
2023/03/10 05:36:27;;;;;;;2.73;1.57;;;8.90;97.30;;;;;;5005022;28;20858;-85
2023/03/10 05:38:52;;;;;;;1.10;1.00;;;8.90;97.30;;;;;;5010429;28;20449;-83
2023/03/10 05:41:18;;;;;;;1.00;0.90;;;9.00;97.30;;;;;;5013682;28;20600;-84
2023/03/10 05:43:44;;;;;;;1.20;1.10;;;9.00;97.30;;;;;;4998816;28;20725;-84
2023/03/10 05:46:10;;;;;;;1.43;1.33;;;9.00;97.30;;;;;;5016840;28;20204;-85
2023/03/10 05:48:36;;;;;;;1.00;0.90;;;9.00;97.30;;;;;;5005249;28;20185;-86
2023/03/10 05:51:20;;;;;;;1.13;1.07;;;9.10;97.30;;;;;;5007907;28;20477;-85
2023/03/10 05:53:45;;;;;;;1.57;1.40;;;9.10;97.30;;;;;;5006107;28;20207;-86
2023/03/10 05:56:20;;;;;;;1.03;0.93;;;9.10;97.30;;;;;;5005676;28;20427;-85
2023/03/10 05:58:46;;;;;;;3.80;1.30;;;9.00;97.30;;;;;;5002971;28;20694;-86
2023/03/10 06:01:13;;;;;;;0.90;0.80;;;9.10;97.30;;;;;;4999359;28;20429;-86
2023/03/10 06:03:38;;;;;;;1.20;1.10;;;9.10;97.30;;;;;;5008425;28;20533;-87
2023/03/10 06:06:08;;;;;;;1.40;1.30;;;9.10;97.30;;;;;;5006072;28;20555;-85
2023/03/10 06:08:34;;;;;;;1.63;1.53;;;9.10;97.30;;;;;;5008418;28;20272;-85
2023/03/10 06:10:59;;;;;;;1.37;1.27;;;9.10;97.30;;;;;;5009738;28;20510;-85
2023/03/10 06:13:25;;;;;;;2.40;2.20;;;9.10;97.30;;;;;;5002400;28;21050;-85
2023/03/10 06:15:56;;;;;;;1.00;0.90;;;9.10;97.30;;;;;;5013745;28;20191;-86
2023/03/10 06:18:22;;;;;;;5.13;1.50;;;9.10;97.30;;;;;;5030526;28;20460;-85
2023/03/10 06:20:48;;;;;;;1.00;0.90;;;9.00;97.30;;;;;;5003274;28;20420;-85
2023/03/10 06:23:15;;;;;;;1.00;0.90;;;9.00;97.30;;;;;;5002453;28;20326;-87
2023/03/10 06:25:41;;;;;;;2.80;2.63;;;9.10;97.30;;;;;;4999233;28;20463;-87
2023/03/10 06:28:08;;;;;;;1.00;0.90;;;9.10;97.30;;;;;;5011011;28;20419;-87
2023/03/10 06:30:33;;;;;;;0.93;0.83;;;9.10;97.30;;;;;;5011819;28;20486;-86
2023/03/10 06:32:59;;;;;;;1.40;1.27;;;9.10;97.30;;;;;;5006676;28;20427;-87
2023/03/10 06:35:26;;;;;;;1.00;0.90;;;9.20;97.30;;;;;;5013961;28;20224;-87
2023/03/10 06:37:51;;;;;;;1.00;0.90;;;9.20;97.30;;;;;;5032102;28;20431;-87
2023/03/10 06:40:17;;;;;;;1.20;1.10;;;9.20;97.30;;;;;;5014396;28;20415;-86
2023/03/10 06:42:43;;;;;;;1.10;1.10;;;9.30;97.30;;;;;;5010308;28;20706;-87
2023/03/10 06:45:12;;;;;;;1.10;1.00;;;9.30;97.30;;;;;;5011722;28;20683;-86
2023/03/10 06:47:37;;;;;;;1.57;1.37;;;9.40;97.30;;;;;;5010628;28;20427;-86
2023/03/10 06:50:04;;;;;;;2.40;1.50;;;9.40;97.30;;;;;;5009330;28;20802;-87
2023/03/10 06:52:32;;;;;;;0.90;0.80;;;9.50;97.30;;;;;;5007888;28;20687;-86
2023/03/10 06:54:58;;;;;;;1.10;1.00;;;9.50;97.30;;;;;;5011244;28;20597;-87
2023/03/10 06:57:24;;;;;;;1.00;0.90;;;9.60;97.30;;;;;;5009888;28;20511;-86
2023/03/10 06:59:49;;;;;;;2.00;1.90;;;9.60;97.30;;;;;;5005683;28;20669;-87
2023/03/10 07:02:15;;;;;;;1.23;1.10;;;9.70;97.30;;;;;;5002321;28;20191;-86
2023/03/10 07:04:40;;;;;;;1.00;0.90;;;9.70;97.30;;;;;;5005652;28;20357;-87
2023/03/10 07:07:06;;;;;;;0.80;0.70;;;9.80;97.30;;;;;;5009471;28;20184;-86
2023/03/10 07:09:31;;;;;;;0.93;0.83;;;9.80;97.30;;;;;;5009799;28;20180;-86
2023/03/10 07:11:57;;;;;;;1.00;0.90;;;9.80;97.30;;;;;;5010714;28;20220;-87
2023/03/10 07:14:22;;;;;;;1.33;1.23;;;9.90;97.30;;;;;;5030431;28;20207;-87
2023/03/10 07:16:48;;;;;;;1.10;1.00;;;9.90;97.30;;;;;;5024608;28;20185;-86
2023/03/10 07:19:13;;;;;;;1.20;1.10;;;10.00;97.30;;;;;;5013093;28;20188;-87
2023/03/10 07:21:39;;;;;;;1.00;0.90;;;10.00;97.30;;;;;;5032097;28;20177;-86
2023/03/10 07:24:05;;;;;;;1.00;0.90;;;10.10;97.30;;;;;;5003865;28;20651;-86
2023/03/10 07:26:30;;;;;;;1.20;1.10;;;10.10;97.30;;;;;;5009889;28;20204;-87
2023/03/10 07:28:56;;;;;;;0.70;0.70;;;10.10;97.30;;;;;;5011748;28;20181;-86
2023/03/10 07:31:21;;;;;;;1.20;1.00;;;10.10;97.30;;;;;;5002818;28;20219;-87
2023/03/10 07:33:48;;;;;;;0.90;0.80;;;10.20;97.30;;;;;;5004656;28;20225;-86
2023/03/10 07:36:16;;;;;;;1.10;1.00;;;10.20;97.30;;;;;;5009521;28;20263;-87
2023/03/10 07:38:42;;;;;;;1.97;1.20;;;10.30;97.30;;;;;;5008700;28;20420;-86
2023/03/10 07:41:10;;;;;;;0.90;0.80;;;10.40;97.30;;;;;;5008363;28;20437;-86
2023/03/10 07:43:37;;;;;;;0.90;0.80;;;10.50;97.30;;;;;;5011066;28;20231;-86
2023/03/10 07:46:08;;;;;;;1.00;0.90;;;10.70;97.30;;;;;;5023495;28;20829;-86
2023/03/10 07:48:34;;;;;;;3.37;1.27;;;10.90;97.30;;;;;;5009668;28;20191;-86
2023/03/10 07:51:00;;;;;;;1.43;1.33;;;11.00;97.30;;;;;;5013021;28;20510;-87
2023/03/10 07:53:27;;;;;;;1.37;1.27;;;11.20;97.30;;;;;;5009420;28;20508;-86
2023/03/10 07:55:55;;;;;;;0.90;0.80;;;11.40;97.30;;;;;;5005210;28;20423;-86
2023/03/10 07:58:20;;;;;;;1.00;0.90;;;11.40;97.30;;;;;;5028774;28;20429;-88
2023/03/10 08:00:55;;;;;;;1.07;1.03;;;11.40;97.30;;;;;;5022628;28;20214;-86
2023/03/10 08:03:22;;;;;;;1.10;1.00;;;11.40;97.30;;;;;;5012938;28;20199;-87
2023/03/10 08:05:48;;;;;;;0.97;0.87;;;11.30;97.30;;;;;;5013835;28;20462;-86
2023/03/10 08:08:14;;;;;;;1.30;1.20;;;11.30;97.30;;;;;;5026765;28;20480;-87
2023/03/10 08:10:39;;;;;;;1.13;1.03;;;11.30;97.30;;;;;;5037692;28;20660;-86
2023/03/10 08:13:05;;;;;;;5.93;3.20;;;11.40;97.30;;;;;;5018199;28;20346;-87
2023/03/10 08:15:30;;;;;;;0.90;0.80;;;11.50;97.30;;;;;;5026185;28;20725;-86
2023/03/10 08:17:56;;;;;;;1.00;0.90;;;11.60;97.30;;;;;;5028935;28;20183;-87
2023/03/10 08:20:21;;;;;;;0.87;0.77;;;11.60;97.30;;;;;;5027402;28;20227;-87
2023/03/10 08:22:47;;;;;;;1.00;0.90;;;11.70;97.30;;;;;;5033274;28;20891;-87
2023/03/10 08:25:12;;;;;;;3.70;1.03;;;11.80;97.30;;;;;;5026669;28;20240;-87
2023/03/10 08:27:40;;;;;;;1.00;0.90;;;11.90;97.30;;;;;;5024168;28;20175;-87
2023/03/10 08:30:06;;;;;;;1.10;1.00;;;12.10;97.30;;;;;;5016391;28;20180;-87
2023/03/10 08:32:31;;;;;;;0.90;0.80;;;12.20;97.30;;;;;;5046502;28;20419;-87
2023/03/10 08:34:57;;;;;;;1.17;1.10;;;12.30;97.30;;;;;;5021980;28;20517;-87
2023/03/10 08:37:22;;;;;;;1.30;1.17;;;12.40;97.30;;;;;;5021904;28;20211;-87
2023/03/10 08:39:50;;;;;;;1.53;1.23;;;12.50;97.30;;;;;;5021913;28;20176;-87
2023/03/10 08:42:16;;;;;;;1.43;1.00;;;12.60;97.30;;;;;;5020397;28;20177;-87
2023/03/10 08:44:41;;;;;;;0.90;0.80;;;12.70;97.30;;;;;;5024293;28;20465;-86
2023/03/10 08:47:07;;;;;;;1.00;0.90;;;12.90;97.30;;;;;;5015875;28;20181;-87
2023/03/10 08:49:33;;;;;;;0.90;0.80;;;13.00;97.30;;;;;;5022520;28;20187;-87
2023/03/10 08:51:59;;;;;;;1.00;0.90;;;13.00;97.30;;;;;;5020066;28;20276;-86
2023/03/10 08:54:24;;;;;;;1.07;0.97;;;13.20;97.30;;;;;;5007835;28;20570;-87
2023/03/10 08:56:51;;;;;;;0.90;0.80;;;;;;;;;;5020973;28;20813;-87
2023/03/10 08:59:18;;;;;;;1.10;1.00;;;13.60;97.30;;;;;;5027993;28;20179;-88
2023/03/10 09:01:44;;;;;;;1.00;0.90;;;13.60;97.30;;;;;;5024093;28;20430;-87
2023/03/10 09:04:10;;;;;;;4.70;1.10;;;13.50;97.30;;;;;;5027135;28;20439;-87
2023/03/10 09:06:36;;;;;;;1.00;0.90;;;13.60;97.30;;;;;;5012826;28;20540;-87
2023/03/10 09:09:03;;;;;;;1.00;0.90;;;13.70;97.30;;;;;;5031334;28;20184;-87
2023/03/10 09:11:31;;;;;;;1.00;0.90;;;13.70;97.30;;;;;;5014603;28;20471;-87
2023/03/10 09:13:57;;;;;;;1.00;0.90;;;13.80;97.30;;;;;;5040547;28;20439;-88
2023/03/10 09:16:24;;;;;;;1.00;0.90;;;13.70;97.10;;;;;;5022250;28;20461;-86
2023/03/10 09:18:49;;;;;;;1.10;1.00;;;13.70;97.30;;;;;;5036443;28;20464;-85
2023/03/10 09:21:17;;;;;;;1.30;1.20;;;13.70;97.30;;;;;;5016812;28;20431;-87
2023/03/10 09:23:45;;;;;;;0.93;0.87;;;13.60;96.80;;;;;;5024084;28;20204;-88
2023/03/10 09:26:11;;;;;;;0.90;0.80;;;13.50;96.80;;;;;;5020688;28;20874;-87
2023/03/10 09:28:36;;;;;;;1.10;1.03;;;13.50;97.00;;;;;;5007421;28;20415;-87
2023/03/10 09:31:04;;;;;;;1.43;1.33;;;13.50;97.30;;;;;;5037677;28;20423;-88
2023/03/10 09:33:29;;;;;;;1.20;1.10;;;13.60;96.50;;;;;;5020046;28;20234;-87
2023/03/10 09:35:56;;;;;;;1.00;0.90;;;13.60;96.10;;;;;;5020109;28;21072;-87
2023/03/10 09:38:22;;;;;;;1.00;0.90;;;13.50;95.60;;;;;;5033885;28;20177;-88
2023/03/10 09:40:59;;;;;;;1.53;1.43;;;13.50;96.30;;;;;;5021091;28;20531;-88
2023/03/10 09:43:28;;;;;;;1.47;1.47;;;13.70;96.40;;;;;;5028519;28;20507;-88
2023/03/10 09:46:06;;;;;;;0.77;0.73;;;13.70;96.30;;;;;;5018474;28;20455;-88
2023/03/10 09:48:45;;;;;;;1.53;1.43;;;13.80;95.90;;;;;;5032468;28;20418;-88
2023/03/10 09:51:19;;;;;;;0.90;0.80;;;13.90;96.20;;;;;;5043489;28;20917;-88
2023/03/10 09:54:11;;;;;;;1.00;0.90;;;14.00;95.30;;;;;;5015687;28;20442;-88
2023/03/10 09:56:36;;;;;;;2.70;1.37;;;13.90;95.30;;;;;;5022652;28;20415;-87
2023/03/10 09:59:23;;;;;;;1.40;1.30;;;13.80;95.20;;;;;;5033621;28;20415;-88
2023/03/10 10:01:50;;;;;;;1.20;1.10;;;13.60;95.70;;;;;;5009676;28;20176;-87
2023/03/10 10:04:26;;;;;;;0.90;0.80;;;13.50;96.10;;;;;;5016137;28;21003;-88
2023/03/10 10:06:55;;;;;;;2.00;1.00;;;13.40;95.50;;;;;;5012183;28;20555;-87
2023/03/10 10:09:31;;;;;;;2.03;1.90;;;13.30;95.60;;;;;;5005678;28;20426;-88
2023/03/10 10:11:57;;;;;;;1.77;1.67;;;13.30;96.00;;;;;;5026907;28;20429;-88
2023/03/10 10:14:27;;;;;;;1.00;0.90;;;13.30;96.00;;;;;;5025773;28;20508;-88
2023/03/10 10:17:03;;;;;;;1.20;1.10;;;13.40;96.20;;;;;;5010024;28;20424;-88
2023/03/10 10:19:29;;;;;;;1.10;1.00;;;13.50;95.50;;;;;;4999277;28;20957;-87
2023/03/10 10:22:01;;;;;;;1.30;1.17;;;13.60;95.30;;;;;;5014907;28;20427;-87
2023/03/10 10:24:27;;;;;;;1.87;1.77;;;13.80;95.70;;;;;;5013329;28;20212;-87
2023/03/10 10:26:52;;;;;;;1.93;1.10;;;14.10;94.60;;;;;;5006547;28;20459;-86
2023/03/10 10:29:22;;;;;;;1.10;1.00;;;14.20;94.10;;;;;;5032697;28;20180;-88
2023/03/10 10:32:15;;;;;;;1.00;0.90;;;14.30;94.30;;;;;;5003591;28;20173;-88
2023/03/10 10:34:42;;;;;;;1.00;0.90;;;14.30;93.60;;;;;;5025370;28;20469;-88
2023/03/10 10:37:41;;;;;;;1.30;1.20;;;14.50;93.80;;;;;;5027418;28;20415;-88
2023/03/10 10:40:22;;;;;;;0.70;0.70;;;14.50;93.10;;;;;;5022472;28;20411;-87
2023/03/10 10:42:52;;;;;;;3.37;2.50;;;14.40;92.80;;;;;;5006369;28;20918;-88
2023/03/10 10:45:38;;;;;;;2.20;1.73;;;14.30;93.30;;;;;;5005628;28;21009;-87
2023/03/10 10:48:04;;;;;;;1.30;1.20;;;14.30;93.50;;;;;;5027655;28;20900;-87
2023/03/10 10:50:35;;;;;;;0.90;0.80;;;14.30;93.80;;;;;;5011049;28;20980;-88
2023/03/10 10:53:20;;;;;;;0.90;0.80;;;14.30;93.10;;;;;;5006105;28;20427;-88
2023/03/10 10:55:58;;;;;;;1.43;1.30;;;14.30;92.50;;;;;;5011842;28;20430;-87
2023/03/10 10:58:35;;;;;;;1.00;0.90;;;14.20;92.70;;;;;;5026017;28;20428;-88
2023/03/10 11:01:04;;;;;;;0.97;0.87;;;14.10;92.50;;;;;;5000742;28;20426;-86
2023/03/10 11:03:42;;;;;;;0.90;0.80;;;14.20;92.80;;;;;;5006236;28;20852;-87
2023/03/10 11:06:23;;;;;;;0.90;0.80;;;14.00;92.50;;;;;;5017369;28;20461;-88
2023/03/10 11:08:50;;;;;;;1.53;1.10;;;14.00;92.60;;;;;;5007940;28;20451;-87
2023/03/10 11:11:31;;;;;;;0.90;0.80;;;14.00;93.20;;;;;;5015605;28;20497;-87
2023/03/10 11:14:09;;;;;;;1.00;0.90;;;14.00;93.20;;;;;;5032591;28;20465;-87
2023/03/10 11:17:10;;;;;;;1.00;0.90;;;14.30;92.90;;;;;;5001829;28;20411;-87
2023/03/10 11:19:58;;;;;;;1.00;0.90;;;14.70;92.60;;;;;;5022708;28;20419;-87
2023/03/10 11:22:46;;;;;;;0.90;0.80;;;14.90;91.30;;;;;;5006285;28;20937;-87
2023/03/10 11:25:12;;;;;;;0.93;0.83;;;14.80;91.20;;;;;;4993830;28;20460;-87
2023/03/10 11:28:02;;;;;;;0.90;0.80;;;14.80;91.40;;;;;;5014887;28;20420;-88
2023/03/10 11:30:33;;;;;;;2.20;1.23;;;14.60;91.30;;;;;;5030966;28;20177;-87
2023/03/10 11:33:15;;;;;;;1.00;0.90;;;14.60;91.90;;;;;;5032225;28;20462;-86
2023/03/10 11:35:47;;;;;;;0.73;0.67;;;14.50;91.40;;;;;;5034420;28;20466;-87
2023/03/10 11:38:38;;;;;;;1.00;0.90;;;14.50;91.80;;;;;;5039190;28;20415;-86
2023/03/10 11:41:16;;;;;;;6.33;1.00;;;14.70;91.70;;;;;;5013816;28;20416;-87
2023/03/10 11:43:55;;;;;;;1.00;0.90;;;15.10;91.10;;;;;;5029919;28;20951;-87
2023/03/10 11:46:39;;;;;;;1.07;0.97;;;15.50;90.50;;;;;;5025083;28;20465;-87
2023/03/10 11:49:11;;;;;;;0.90;0.80;;;15.70;90.20;;;;;;5018999;28;20482;-87
2023/03/10 11:51:45;;;;;;;0.90;0.80;;;15.70;89.90;;;;;;5035013;28;20414;-87
2023/03/10 11:54:24;;;;;;;1.00;0.90;;;15.70;90.60;;;;;;5034665;28;20434;-87
2023/03/10 11:56:51;;;;;;;1.00;0.90;;;15.50;89.80;;;;;;5024827;28;20419;-87
2023/03/10 11:59:21;;;;;;;0.90;0.80;;;15.20;90.60;;;;;;5024644;28;20415;-87
2023/03/10 12:02:19;;;;;;;7.93;1.40;;;14.90;91.00;;;;;;5038032;28;20413;-87
2023/03/10 12:05:05;;;;;;;3.23;1.10;;;14.80;91.50;;;;;;4968064;28;21073;-87
2023/03/10 12:07:36;;;;;;;1.10;1.00;;;14.60;91.70;;;;;;5021181;28;20427;-87
2023/03/10 12:10:14;;;;;;;1.00;0.90;;;14.50;92.20;;;;;;5012840;28;20422;-86
2023/03/10 12:12:47;;;;;;;0.90;0.80;;;14.30;92.30;;;;;;5030006;28;20422;-87
2023/03/10 12:15:35;;;;;;;1.17;1.07;;;14.20;92.90;;;;;;5021498;28;20455;-87
2023/03/10 12:18:03;;;;;;;1.13;1.03;;;14.10;92.80;;;;;;5013553;28;20460;-87
2023/03/10 12:20:31;;;;;;;4.87;2.20;;;14.10;92.80;;;;;;5017420;28;20420;-87
2023/03/10 12:23:23;;;;;;;0.90;0.80;;;14.10;92.40;;;;;;5023743;28;20472;-87
2023/03/10 12:25:48;;;;;;;0.90;0.80;;;14.10;93.00;;;;;;5043257;28;20453;-87
2023/03/10 12:28:26;;;;;;;0.90;0.80;;;14.10;93.20;;;;;;5024255;28;20427;-87
2023/03/10 12:31:31;;;;;;;0.90;0.80;;;14.00;93.70;;;;;;5018645;28;20183;-86
2023/03/10 12:34:18;;;;;;;0.90;0.80;;;14.00;94.20;;;;;;5024761;28;20474;-87
2023/03/10 12:36:45;;;;;;;0.93;0.83;;;13.90;94.80;;;;;;5016163;28;20438;-87
2023/03/10 12:39:31;;;;;;;1.20;1.10;;;13.90;95.00;;;;;;5025421;28;20433;-87
2023/03/10 12:42:01;;;;;;;1.10;1.00;;;13.80;94.90;;;;;;5029326;28;20852;-87
2023/03/10 12:44:46;;;;;;;3.90;2.40;;;13.80;95.00;;;;;;5033386;28;20800;-87
2023/03/10 12:47:26;;;;;;;1.13;1.03;;;13.60;97.30;;;;;;5025045;28;20462;-88
2023/03/10 12:50:23;;;;;;;1.00;0.90;;;12.90;97.30;;;;;;5012338;28;20452;-87
2023/03/10 12:53:00;;;;;;;1.40;1.30;;;12.60;97.30;;;;;;5012870;28;20419;-88
2023/03/10 12:55:27;;;;;;;1.10;1.00;;;12.30;97.30;;;;;;5041037;28;20452;-87
2023/03/10 12:58:19;;;;;;;1.73;1.13;;;12.10;97.30;;;;;;5013733;28;20769;-87
2023/03/10 13:00:59;;;;;;;4.70;1.40;;;12.10;97.30;;;;;;5019286;28;20437;-87
2023/03/10 13:03:47;;;;;;;1.10;1.00;;;12.20;97.30;;;;;;5012367;28;20443;-87